Time;durP1;ratioP1;P1;durP2;ratioP2;P2;SDS_P1;SDS_P2;PMS_P1;PMS_P2;Temp;Humidity;BMP_temperature;BMP_pressure;BME280_temperature;BME280_humidity;BME280_pressure;Samples;Min_cycle;Max_cycle;Signal;HPM_P1;HPM_P2
2024/01/22 00:00:58;;;;;;;35.55;17.60;;;;;;;28.94;73.85;101190.06;5050208;28;66330;-40
2024/01/22 00:03:29;;;;;;;30.63;18.42;;;;;;;28.93;73.83;101185.69;5040335;28;70591;-39
2024/01/22 00:06:00;;;;;;;27.58;17.95;;;;;;;28.97;73.77;101183.44;5041427;28;65267;-41
2024/01/22 00:08:31;;;;;;;29.33;17.48;;;;;;;29.00;73.72;101199.22;5042175;28;71897;-40
2024/01/22 00:11:02;;;;;;;24.10;16.90;;;;;;;28.93;73.05;101176.78;5043205;28;66755;-41
2024/01/22 00:13:33;;;;;;;29.60;15.50;;;;;;;29.03;72.25;101200.69;5041471;28;69996;-41
2024/01/22 00:16:04;;;;;;;33.38;16.85;;;;;;;29.07;72.92;101205.53;5042455;28;66235;-39
2024/01/22 00:18:34;;;;;;;23.58;15.80;;;;;;;29.06;72.77;101206.59;5044780;28;70968;-45
2024/01/22 00:21:05;;;;;;;24.17;13.98;;;;;;;29.09;73.85;101218.84;5038838;28;66392;-46
2024/01/22 00:23:36;;;;;;;22.38;14.23;;;;;;;29.12;73.92;101224.69;5029148;28;70446;-41
2024/01/22 00:26:09;;;;;;;33.97;14.20;;;;;;;29.13;73.43;101230.91;5051480;28;66260;-40
2024/01/22 00:28:43;;;;;;;19.15;13.25;;;;;;;29.14;73.07;101227.16;5046701;28;69750;-40
2024/01/22 00:31:14;;;;;;;22.77;14.40;;;;;;;29.16;73.33;101238.63;5044131;28;66491;-40
2024/01/22 00:33:45;;;;;;;20.48;14.35;;;;;;;29.18;73.49;101240.09;5044784;28;70170;-40
2024/01/22 00:36:16;;;;;;;25.30;14.40;;;;;;;29.13;73.16;101236.31;5018268;28;67505;-40
2024/01/22 00:38:46;;;;;;;18.80;13.27;;;;;;;29.17;73.20;101246.53;5041179;28;70480;-41
2024/01/22 00:41:17;;;;;;;19.95;12.27;;;;;;;29.17;73.05;101241.13;5052241;28;66118;-40
2024/01/22 00:43:48;;;;;;;26.10;12.20;;;;;;;29.18;72.39;101242.78;5040940;28;70393;-40
2024/01/22 00:46:19;;;;;;;22.38;11.85;;;;;;;29.20;72.04;101248.00;5040492;28;66719;-39
2024/01/22 00:48:50;;;;;;;17.08;11.40;;;;;;;29.10;72.37;101236.72;5039044;28;69615;-40
2024/01/22 00:51:21;;;;;;;20.02;9.98;;;;;;;29.18;72.56;101255.47;5043045;28;66147;-39
2024/01/22 00:53:52;;;;;;;18.08;10.35;;;;;;;29.17;72.08;101262.75;5044049;28;71442;-39
2024/01/22 00:56:23;;;;;;;16.48;9.48;;;;;;;29.26;72.08;101273.38;5043503;28;65778;-39
2024/01/22 00:58:54;;;;;;;26.85;9.93;;;;;;;29.28;71.97;101274.00;5057326;28;69622;-38
2024/01/22 01:01:25;;;;;;;9.93;8.93;;;;;;;29.25;72.22;101269.00;5044311;28;66643;-39
2024/01/22 01:03:56;;;;;;;13.30;9.32;;;;;;;29.25;72.50;101277.94;5039173;28;69699;-40
2024/01/22 01:06:27;;;;;;;13.77;9.25;;;;;;;29.28;72.31;101282.97;5048338;28;65449;-40
2024/01/22 01:08:58;;;;;;;18.00;8.77;;;;;;;29.30;72.02;101297.09;5044932;28;69739;-40
2024/01/22 01:11:29;;;;;;;17.52;8.27;;;;;;;29.32;71.90;101297.72;5047014;28;66667;-39
2024/01/22 01:14:00;;;;;;;12.27;9.02;;;;;;;29.39;70.76;101301.31;5044969;28;70075;-40
2024/01/22 01:16:31;;;;;;;8.55;7.28;;;;;;;29.34;71.03;101297.53;5040999;28;66612;-40
2024/01/22 01:19:02;;;;;;;8.03;6.90;;;;;;;29.30;70.92;101291.69;5044290;28;70146;-39
2024/01/22 01:21:32;;;;;;;9.30;6.28;;;;;;;29.35;70.53;101308.13;5045288;28;66072;-39
2024/01/22 01:24:03;;;;;;;7.50;6.90;;;;;;;29.32;70.51;101300.44;5046519;28;70541;-40
2024/01/22 01:26:39;;;;;;;7.80;7.10;;;;;;;29.37;70.34;101306.06;5044208;28;68331;-39
2024/01/22 01:29:10;;;;;;;7.53;6.82;;;;;;;29.22;70.55;101278.34;5046606;28;70288;-38
2024/01/22 01:31:41;;;;;;;7.75;6.97;;;;;;;29.40;70.24;101302.13;5057890;28;66757;-41
2024/01/22 01:34:12;;;;;;;7.65;6.75;;;;;;;29.43;70.29;101311.72;5058621;28;70344;-38
2024/01/22 01:36:43;;;;;;;7.13;6.63;;;;;;;29.38;70.22;101301.50;5043696;28;66075;-39
2024/01/22 01:39:14;;;;;;;6.93;6.33;;;;;;;29.46;70.39;101322.13;5056756;28;70445;-38
2024/01/22 01:41:49;;;;;;;9.27;6.68;;;;;;;29.04;70.16;101253.72;5041998;28;65954;-40
2024/01/22 01:44:20;;;;;;;6.55;6.05;;;;;;;29.50;70.17;101323.38;5060016;28;70302;-38
2024/01/22 01:46:51;;;;;;;7.63;6.43;;;;;;;29.40;70.44;101302.97;5057665;28;67318;-41
2024/01/22 01:49:22;;;;;;;7.35;6.30;;;;;;;29.52;70.49;101332.13;5043863;28;69153;-39
2024/01/22 01:51:53;;;;;;;7.27;6.57;;;;;;;29.51;70.57;101330.47;5035586;28;66280;-40
2024/01/22 01:54:27;;;;;;;6.90;6.35;;;;;;;29.53;70.44;101339.19;5032684;28;69648;-39
2024/01/22 01:56:58;;;;;;;7.22;6.57;;;;;;;29.56;70.12;101339.66;5041124;28;66576;-39
2024/01/22 01:59:28;;;;;;;7.00;6.43;;;;;;;29.58;70.15;101337.56;5039319;28;69324;-39
2024/01/22 02:01:59;;;;;;;7.22;6.53;;;;;;;29.51;70.02;101330.47;5040482;28;66690;-39
2024/01/22 02:04:31;;;;;;;6.88;6.13;;;;;;;29.54;69.99;101336.31;5041726;28;70654;-39
2024/01/22 02:07:03;;;;;;;6.40;5.90;;;;;;;29.57;69.87;101337.78;5039216;28;65942;-39
2024/01/22 02:09:51;;;;;;;6.35;5.70;;;;;;;29.24;70.08;101297.06;5040522;28;70204;-39
2024/01/22 02:12:22;;;;;;;6.07;5.60;;;;;;;29.60;70.06;101345.47;5046598;28;66619;-40
2024/01/22 02:14:53;;;;;;;5.93;5.45;;;;;;;29.64;69.90;101341.34;5048494;28;69719;-38
2024/01/22 02:17:24;;;;;;;8.77;6.43;;;;;;;29.65;70.27;101353.84;5049677;28;66312;-39
2024/01/22 02:19:56;;;;;;;5.27;4.90;;;;;;;29.56;70.40;101322.56;5053012;28;70037;-39
2024/01/22 02:22:27;;;;;;;6.50;6.03;;;;;;;29.67;70.13;101342.81;5052596;28;67106;-38
2024/01/22 02:24:59;;;;;;;6.32;5.85;;;;;;;29.71;69.78;101344.94;5054161;28;70416;-39
2024/01/22 02:27:30;;;;;;;6.00;5.60;;;;;;;29.73;70.13;101350.97;5043112;28;66967;-39
2024/01/22 02:30:01;;;;;;;6.60;6.07;;;;;;;29.54;69.56;101330.91;5067379;28;70282;-40
2024/01/22 02:32:32;;;;;;;6.45;5.95;;;;;;;29.75;70.27;101358.88;5054493;28;66376;-39
2024/01/22 02:35:03;;;;;;;8.93;5.45;;;;;;;29.77;70.11;101360.34;5065507;28;69710;-39
2024/01/22 02:37:34;;;;;;;7.32;5.75;;;;;;;29.78;69.78;101364.75;5071535;28;65975;-39
2024/01/22 02:40:06;;;;;;;5.80;5.32;;;;;;;29.81;70.00;101361.63;5041538;28;70227;-38
2024/01/22 02:42:37;;;;;;;6.45;5.75;;;;;;;29.81;69.77;101352.66;5049332;28;65386;-40
2024/01/22 02:45:09;;;;;;;5.72;5.32;;;;;;;29.82;69.58;101355.19;5039147;28;69171;-40
2024/01/22 02:47:40;;;;;;;5.47;5.07;;;;;;;29.82;70.09;101344.34;5037356;28;66302;-39
2024/01/22 02:50:11;;;;;;;6.10;5.50;;;;;;;29.85;69.79;101348.53;5056074;28;69109;-40
2024/01/22 02:52:42;;;;;;;5.82;5.40;;;;;;;29.87;69.65;101342.94;5043511;28;66679;-39
2024/01/22 02:55:13;;;;;;;7.05;6.35;;;;;;;29.83;69.45;101332.50;5054700;28;69588;-39
2024/01/22 02:57:46;;;;;;;6.05;5.50;;;;;;;29.93;69.45;101334.00;5055333;28;66574;-40
2024/01/22 03:00:17;;;;;;;7.10;5.72;;;;;;;29.92;69.54;101332.31;5057626;28;68671;-39
2024/01/22 03:02:48;;;;;;;5.95;5.50;;;;;;;29.94;69.70;101330.25;5055342;28;66248;-39
2024/01/22 03:05:19;;;;;;;5.70;5.30;;;;;;;29.99;69.65;101322.38;5042812;28;70519;-39
2024/01/22 03:07:49;;;;;;;5.57;5.18;;;;;;;30.01;69.19;101323.00;5054208;28;66719;-39
2024/01/22 03:10:20;;;;;;;5.75;5.25;;;;;;;30.03;69.24;101329.03;5041134;28;69713;-38
2024/01/22 03:12:51;;;;;;;6.25;5.75;;;;;;;30.03;69.27;101318.19;5041683;28;65221;-39
2024/01/22 03:15:22;;;;;;;5.90;5.40;;;;;;;30.04;69.38;101317.19;5059981;28;71077;-39
2024/01/22 03:17:53;;;;;;;6.53;5.90;;;;;;;30.06;69.42;101315.09;5043440;28;66348;-40
2024/01/22 03:20:25;;;;;;;6.03;5.60;;;;;;;30.08;69.24;101313.00;5041873;28;69569;-39
2024/01/22 03:22:55;;;;;;;5.93;5.32;;;;;;;30.10;69.41;101308.25;5042530;28;65561;-40
2024/01/22 03:25:26;;;;;;;6.93;6.22;;;;;;;30.06;69.04;101298.84;5043082;28;69658;-40
2024/01/22 03:27:59;;;;;;;8.70;6.20;;;;;;;29.89;69.10;101260.53;5044052;28;42998;-39
2024/01/22 03:30:30;;;;;;;6.72;5.72;;;;;;;30.15;69.09;101310.34;5044069;28;69690;-40
2024/01/22 03:33:01;;;;;;;5.93;5.53;;;;;;;30.14;69.04;101297.84;5061666;28;64813;-39
2024/01/22 03:35:32;;;;;;;6.32;5.72;;;;;;;30.17;68.66;101292.00;5059955;28;69641;-39
2024/01/22 03:38:04;;;;;;;6.97;6.30;;;;;;;30.21;68.75;101294.09;5058693;28;66739;-39
2024/01/22 03:40:34;;;;;;;6.63;6.07;;;;;;;30.20;68.91;101289.75;5074097;28;70655;-40
2024/01/22 03:43:05;;;;;;;9.55;6.30;;;;;;;30.23;68.76;101292.06;5039971;28;65788;-40
2024/01/22 03:45:37;;;;;;;6.50;5.45;;;;;;;30.24;68.71;101293.72;5028003;28;70065;-40
2024/01/22 03:48:07;;;;;;;7.60;6.75;;;;;;;30.26;68.32;101290.81;5041316;28;66310;-39
2024/01/22 03:50:39;;;;;;;6.78;6.18;;;;;;;30.28;68.37;101286.88;5057582;28;70229;-40
2024/01/22 03:53:10;;;;;;;9.43;6.13;;;;;;;30.31;68.45;101290.19;5041598;28;66358;-40
2024/01/22 03:55:40;;;;;;;6.70;6.20;;;;;;;30.33;68.70;101280.00;5040674;28;69610;-40
2024/01/22 03:58:11;;;;;;;6.57;5.97;;;;;;;30.31;68.54;101272.06;5026267;28;65991;-40
2024/01/22 04:00:44;;;;;;;6.78;6.28;;;;;;;30.38;68.40;101261.25;5057108;28;70399;-40
2024/01/22 04:03:15;;;;;;;7.00;6.40;;;;;;;30.34;68.72;101252.75;5042755;28;66073;-40
2024/01/22 04:05:46;;;;;;;6.65;5.90;;;;;;;30.41;68.64;101256.25;5043319;28;70313;-40
2024/01/22 04:08:18;;;;;;;7.22;6.63;;;;;;;30.43;68.33;101256.88;5054008;28;65589;-40
2024/01/22 04:10:48;;;;;;;6.35;5.85;;;;;;;30.42;68.48;101241.69;5043654;28;69485;-40
2024/01/22 04:13:19;;;;;;;6.35;5.75;;;;;;;30.49;68.35;101241.69;5041396;28;66591;-40
2024/01/22 04:16:01;;;;;;;6.83;6.20;;;;;;;30.48;68.02;101242.75;5030129;28;70525;-39
2024/01/22 04:18:32;;;;;;;7.22;6.57;;;;;;;30.50;68.17;101238.75;5041558;28;66329;-41
2024/01/22 04:21:02;;;;;;;6.95;6.35;;;;;;;30.55;68.07;101238.13;5056496;28;69532;-39
2024/01/22 04:23:34;;;;;;;6.50;6.00;;;;;;;30.49;68.01;101214.63;5049767;28;66386;-39
2024/01/22 04:26:05;;;;;;;;;;;;;;;30.31;67.90;101233.34;5047380;28;70281;-40
2024/01/22 04:28:36;;;;;;;6.50;6.00;;;;;;;30.57;68.16;101225.22;5048087;28;66673;-39
2024/01/22 04:31:07;;;;;;;6.55;6.05;;;;;;;30.59;67.90;101215.03;5037207;28;71024;-40
2024/01/22 04:33:37;;;;;;;6.40;5.85;;;;;;;30.63;67.93;101216.25;5059370;28;66327;-40
2024/01/22 04:36:08;;;;;;;6.38;5.88;;;;;;;30.66;67.85;101202.28;5076170;28;68915;-46
2024/01/22 04:38:39;;;;;;;9.32;5.90;;;;;;;30.65;67.68;101197.94;5059442;28;64946;-40
2024/01/22 04:41:10;;;;;;;6.68;6.05;;;;;;;30.58;67.82;101174.63;5039351;28;69869;-40
2024/01/22 04:43:41;;;;;;;7.57;6.50;;;;;;;30.70;67.38;101183.75;5039020;28;66539;-40
2024/01/22 04:46:12;;;;;;;6.68;6.18;;;;;;;30.70;68.02;101178.31;5036831;28;69996;-39
2024/01/22 04:48:43;;;;;;;7.93;6.90;;;;;;;30.73;67.57;101167.94;5033865;28;65798;-40
2024/01/22 04:51:14;;;;;;;6.55;6.05;;;;;;;30.67;67.37;101147.13;5034090;28;70141;-40
2024/01/22 04:53:45;;;;;;;7.22;6.63;;;;;;;30.77;67.66;101149.38;5040774;28;65843;-39
2024/01/22 04:56:16;;;;;;;6.32;5.82;;;;;;;30.79;67.74;101152.69;5052292;28;68980;-39
2024/01/22 04:58:46;;;;;;;8.07;6.10;;;;;;;30.80;67.18;101143.56;5054043;28;66171;-39
2024/01/22 05:01:17;;;;;;;8.65;6.03;;;;;;;30.82;67.62;101137.94;5040023;28;69717;-39
2024/01/22 05:03:48;;;;;;;6.53;6.10;;;;;;;30.73;67.17;101119.19;5034873;28;65489;-39
2024/01/22 05:06:19;;;;;;;6.43;5.95;;;;;;;30.84;67.49;101131.25;5042103;28;71005;-39
2024/01/22 05:08:50;;;;;;;6.83;6.33;;;;;;;30.85;67.27;101115.84;5038940;28;65396;-39
2024/01/22 05:11:22;;;;;;;12.13;7.43;;;;;;;30.85;67.34;101121.25;5046990;28;71014;-39
2024/01/22 05:13:54;;;;;;;8.30;7.17;;;;;;;30.88;67.03;101109.97;5035951;28;65639;-39
2024/01/22 05:16:25;;;;;;;7.65;6.93;;;;;;;30.91;67.05;101104.97;5045016;28;70174;-40
2024/01/22 05:18:55;;;;;;;7.13;6.38;;;;;;;30.92;67.18;101094.94;5044289;28;66694;-39
2024/01/22 05:21:27;;;;;;;7.60;6.80;;;;;;;30.81;67.07;101082.09;5041047;28;70175;-39
2024/01/22 05:23:57;;;;;;;8.48;7.18;;;;;;;30.90;67.31;101080.81;5036324;28;65858;-39
2024/01/22 05:26:28;;;;;;;7.47;6.88;;;;;;;30.96;66.96;101071.81;5042898;28;70102;-41
2024/01/22 05:28:59;;;;;;;7.32;6.22;;;;;;;30.93;66.79;101059.53;5043980;28;65824;-40
2024/01/22 05:31:29;;;;;;;7.28;6.68;;;;;;;30.99;66.90;101063.25;5030515;28;69213;-40
2024/01/22 05:34:01;;;;;;;6.72;6.13;;;;;;;30.97;66.79;101065.34;5047515;28;66492;-41
2024/01/22 05:36:32;;;;;;;7.30;6.65;;;;;;;30.92;66.82;101046.19;5075281;28;69385;-41
2024/01/22 05:39:04;;;;;;;7.30;6.80;;;;;;;31.04;67.01;101055.31;5052975;28;66185;-39
2024/01/22 05:41:36;;;;;;;7.90;7.05;;;;;;;31.07;66.62;101040.50;5041029;28;70564;-40
2024/01/22 05:44:06;;;;;;;7.65;7.05;;;;;;;31.07;66.59;101033.19;5035203;28;65229;-39
2024/01/22 05:46:39;;;;;;;7.70;7.00;;;;;;;31.07;66.72;101027.78;5057450;28;69847;-40
2024/01/22 05:49:10;;;;;;;8.43;7.00;;;;;;;31.11;66.56;101022.75;5032175;28;66675;-40
2024/01/22 05:51:41;;;;;;;;;;;;;;;30.89;65.67;101014.94;5058608;28;69143;-39
2024/01/22 05:54:12;;;;;;;7.15;6.65;;;;;;;31.10;66.59;101002.94;5058546;28;67543;-39
2024/01/22 05:56:43;;;;;;;7.88;7.07;;;;;;;31.15;66.81;101003.13;5035450;28;68360;-41
2024/01/22 05:59:14;;;;;;;7.10;6.60;;;;;;;31.20;66.36;100993.50;5034876;28;66648;-41
2024/01/22 06:01:44;;;;;;;7.20;6.70;;;;;;;31.19;66.22;100986.44;5060612;28;70202;-41
2024/01/22 06:04:15;;;;;;;7.18;6.57;;;;;;;31.22;66.30;100975.16;5061140;28;66296;-39
2024/01/22 06:06:46;;;;;;;7.00;6.50;;;;;;;31.23;66.07;100982.22;5033117;28;71037;-40
2024/01/22 06:09:17;;;;;;;7.80;7.10;;;;;;;31.22;66.33;100969.72;5059908;28;66223;-40
2024/01/22 06:11:49;;;;;;;7.00;6.60;;;;;;;31.21;66.03;100962.66;5059611;28;69927;-41
2024/01/22 06:14:20;;;;;;;7.30;6.70;;;;;;;31.26;66.18;100957.38;5057495;28;66103;-42
2024/01/22 06:16:51;;;;;;;8.93;7.50;;;;;;;31.33;66.03;100960.88;5060163;28;70473;-40
2024/01/22 06:19:23;;;;;;;;;;;;;;;31.12;65.44;100948.53;5074801;28;65607;-40
2024/01/22 06:21:54;;;;;;;7.38;6.78;;;;;;;31.35;66.25;100953.38;5056603;28;70733;-40
2024/01/22 06:24:24;;;;;;;8.07;7.28;;;;;;;31.34;65.84;100940.84;5059258;28;65551;-39
2024/01/22 06:26:55;;;;;;;8.13;7.43;;;;;;;31.31;65.64;100930.44;5058851;28;70391;-41
2024/01/22 06:29:26;;;;;;;8.02;7.40;;;;;;;31.43;65.92;100936.03;5054490;28;66106;-41
2024/01/22 06:31:58;;;;;;;7.20;6.70;;;;;;;31.35;65.68;100920.84;5040735;28;70084;-39
2024/01/22 06:34:28;;;;;;;7.53;7.03;;;;;;;31.38;65.56;100923.13;5063243;28;65298;-40
2024/01/22 06:37:00;;;;;;;8.07;7.47;;;;;;;31.47;65.77;100924.50;5040834;28;70287;-39
2024/01/22 06:39:31;;;;;;;9.23;7.97;;;;;;;31.46;65.73;100917.44;5037229;28;66346;-41
2024/01/22 06:42:02;;;;;;;8.13;7.57;;;;;;;31.53;65.50;100922.78;5039690;28;69769;-41
2024/01/22 06:44:33;;;;;;;8.95;7.38;;;;;;;31.53;65.33;100912.75;5039273;28;66733;-40
2024/01/22 06:47:05;;;;;;;7.43;6.82;;;;;;;31.55;65.52;100921.50;5058882;28;70117;-39
2024/01/22 06:49:36;;;;;;;8.38;7.55;;;;;;;31.53;65.52;100901.91;5041552;28;65810;-39
2024/01/22 06:52:07;;;;;;;7.85;7.15;;;;;;;31.56;65.27;100906.88;5042885;28;71179;-40
2024/01/22 06:54:38;;;;;;;7.65;7.18;;;;;;;31.64;65.30;100900.34;5053249;28;65609;-39
2024/01/22 06:57:09;;;;;;;7.40;6.77;;;;;;;31.65;65.25;100891.16;5060610;28;71016;-39
2024/01/22 06:59:40;;;;;;;8.10;7.57;;;;;;;31.64;65.16;100889.50;5052705;28;66346;-39
2024/01/22 07:02:11;;;;;;;8.83;8.00;;;;;;;31.69;65.19;100894.25;5052915;28;69271;-40
2024/01/22 07:04:43;;;;;;;8.33;7.63;;;;;;;31.72;65.11;100888.38;5041656;28;66654;-39
2024/01/22 07:07:13;;;;;;;7.75;7.15;;;;;;;31.69;64.95;100877.97;5057386;28;69844;-39
2024/01/22 07:09:44;;;;;;;8.32;7.22;;;;;;;31.72;64.97;100867.50;5054022;28;66051;-41
2024/01/22 07:12:15;;;;;;;8.27;7.45;;;;;;;31.79;64.90;100884.53;5049507;28;70096;-39
2024/01/22 07:14:46;;;;;;;8.47;7.70;;;;;;;31.83;64.66;100879.47;5071799;28;65685;-40
2024/01/22 07:17:21;;;;;;;8.18;7.32;;;;;;;31.77;64.64;100858.69;5052902;28;70668;-39
2024/01/22 07:19:52;;;;;;;8.77;7.95;;;;;;;31.86;64.78;100872.78;5037247;28;67096;-39
2024/01/22 07:22:23;;;;;;;8.25;7.55;;;;;;;31.90;64.63;100874.81;5047600;28;69198;-40
2024/01/22 07:24:54;;;;;;;8.15;7.38;;;;;;;31.92;64.63;100872.72;5045527;28;66692;-39
2024/01/22 07:27:24;;;;;;;8.52;7.78;;;;;;;31.94;64.53;100865.19;5041323;28;69667;-40
2024/01/22 07:29:56;;;;;;;9.73;8.30;;;;;;;31.97;64.62;100864.72;5044763;28;65378;-42
2024/01/22 07:32:27;;;;;;;8.75;8.07;;;;;;;31.99;64.45;100861.78;5039838;28;69916;-40
2024/01/22 07:34:58;;;;;;;9.63;7.10;;;;;;;32.01;64.35;100863.22;5043610;28;67227;-40
2024/01/22 07:37:28;;;;;;;8.20;7.50;;;;;;;32.05;64.70;100856.25;5041529;28;70469;-41
2024/01/22 07:39:59;;;;;;;8.57;7.60;;;;;;;32.10;64.11;100862.91;5026480;28;66594;-41
2024/01/22 07:42:33;;;;;;;7.25;6.65;;;;;;;32.13;64.38;100859.72;5031082;28;70026;-39
2024/01/22 07:45:05;;;;;;;7.22;6.63;;;;;;;32.15;64.20;100861.16;5043977;28;66397;-40
2024/01/22 07:47:38;;;;;;;8.13;7.53;;;;;;;32.19;64.34;100864.25;5060734;28;69156;-40
2024/01/22 07:50:20;;;;;;;8.05;7.45;;;;;;;32.22;64.32;100861.88;5061359;28;66306;-40
2024/01/22 07:52:50;;;;;;;7.70;7.10;;;;;;;32.22;64.20;100855.63;5055808;28;69764;-38
2024/01/22 07:55:21;;;;;;;8.40;7.72;;;;;;;32.27;64.18;100858.50;5043025;28;66492;-40
2024/01/22 07:57:52;;;;;;;7.60;7.10;;;;;;;32.31;64.10;100859.66;5034926;28;70469;-40
2024/01/22 08:00:23;;;;;;;7.38;6.78;;;;;;;32.35;64.00;100855.44;5060960;28;66325;-40
2024/01/22 08:02:54;;;;;;;6.70;6.30;;;;;;;32.37;64.10;100853.31;5054197;28;69943;-51
2024/01/22 08:05:25;;;;;;;7.03;6.57;;;;;;;32.40;63.91;100855.59;5039391;28;66039;-39
2024/01/22 08:07:56;;;;;;;7.70;7.10;;;;;;;32.39;63.96;100845.78;5026418;28;70521;-41
2024/01/22 08:10:27;;;;;;;7.70;7.10;;;;;;;32.47;63.85;100853.63;5041710;28;65976;-40
2024/01/22 08:12:58;;;;;;;7.77;7.20;;;;;;;32.41;63.74;100840.94;5031470;28;71247;-41
2024/01/22 08:15:29;;;;;;;7.90;7.40;;;;;;;32.55;63.61;100854.34;5029360;28;66976;-40
2024/01/22 08:18:01;;;;;;;8.53;7.43;;;;;;;32.57;63.39;100857.66;5022108;28;71802;-38
2024/01/22 08:20:32;;;;;;;9.63;7.60;;;;;;;32.59;63.57;100850.94;5021239;28;65925;-40
2024/01/22 08:23:05;;;;;;;7.95;7.30;;;;;;;32.60;63.23;100838.19;5038689;28;70379;-40
2024/01/22 08:25:36;;;;;;;7.33;6.83;;;;;;;32.62;63.44;100844.19;5038913;28;66668;-40
2024/01/22 08:28:07;;;;;;;8.05;7.25;;;;;;;32.44;63.51;100802.47;5027801;28;69947;-39
2024/01/22 08:30:37;;;;;;;7.95;7.43;;;;;;;32.74;63.05;100842.34;5021901;28;66085;-39
2024/01/22 08:33:09;;;;;;;8.20;7.57;;;;;;;32.77;63.33;100850.03;5040315;28;70535;-39
2024/01/22 08:35:40;;;;;;;8.03;7.43;;;;;;;32.77;62.99;100841.88;5066312;27;66095;-39
2024/01/22 08:38:11;;;;;;;7.67;7.17;;;;;;;32.84;62.98;100842.56;5047329;28;70610;-40
2024/01/22 08:40:44;;;;;;;7.75;7.25;;;;;;;32.88;62.92;100849.22;5029441;28;65875;-40
2024/01/22 08:43:15;;;;;;;7.50;7.00;;;;;;;32.66;62.86;100791.91;5019592;28;69929;-39
2024/01/22 08:45:46;;;;;;;8.38;7.68;;;;;;;32.89;62.59;100831.84;5025064;28;65595;-39
2024/01/22 08:48:17;;;;;;;;;;;;;;;32.78;61.43;100837.28;5030535;28;70619;-39
2024/01/22 08:50:48;;;;;;;7.97;7.38;;;;;;;32.98;62.86;100834.22;5026195;28;65622;-39
2024/01/22 08:53:19;;;;;;;7.45;6.95;;;;;;;33.04;62.56;100847.72;5019892;28;69016;-40
2024/01/22 08:55:50;;;;;;;7.07;6.57;;;;;;;33.07;62.66;100835.53;5035923;28;66382;-39
2024/01/22 08:58:22;;;;;;;8.00;7.40;;;;;;;33.11;62.60;100847.59;5022498;28;70538;-40
2024/01/22 09:00:53;;;;;;;7.60;6.97;;;;;;;33.09;62.34;100838.84;5027369;28;66707;-39
2024/01/22 09:03:24;;;;;;;8.18;7.65;;;;;;;33.17;62.26;100845.81;5027577;28;70578;-40
2024/01/22 09:05:56;;;;;;;8.32;7.22;;;;;;;33.23;62.10;100850.31;5030082;28;66835;-43
2024/01/22 09:08:29;;;;;;;7.68;7.07;;;;;;;33.17;62.05;100829.53;5063579;28;70052;-39
2024/01/22 09:11:02;;;;;;;8.85;8.02;;;;;;;33.26;62.14;100847.94;5040808;28;66787;-40
2024/01/22 09:13:33;;;;;;;8.02;7.45;;;;;;;33.25;61.91;100840.84;5033678;28;70467;-40
2024/01/22 09:16:05;;;;;;;8.50;7.78;;;;;;;33.32;61.84;100854.31;5043510;28;66405;-40
2024/01/22 09:18:36;;;;;;;;;;;;;;;33.14;60.44;100849.84;5056948;28;70920;-40
2024/01/22 09:21:06;;;;;;;10.52;9.55;;;;;;;33.22;60.04;100859.53;5041562;28;65642;-40
2024/01/22 09:23:39;;;;;;;13.40;10.70;;;;;;;33.10;60.15;100851.41;5038023;28;70584;-39
2024/01/22 09:26:10;;;;;;;13.00;11.80;;;;;;;32.99;59.76;100866.59;5049630;28;66511;-40
2024/01/22 09:28:40;;;;;;;30.33;13.13;;;;;;;32.94;59.82;100864.56;5057737;28;70502;-39
2024/01/22 09:31:11;;;;;;;20.27;13.45;;;;;;;32.87;59.94;100874.72;5076487;28;65790;-39
2024/01/22 09:33:42;;;;;;;17.07;13.43;;;;;;;32.82;60.10;100871.91;5052380;28;69788;-40
2024/01/22 09:36:13;;;;;;;21.83;14.50;;;;;;;32.68;60.01;100859.56;5055926;28;65945;-39
2024/01/22 09:38:46;;;;;;;17.05;13.35;;;;;;;32.77;60.08;100876.38;5040960;28;70525;-40
2024/01/22 09:41:18;;;;;;;20.15;12.73;;;;;;;32.81;61.23;100875.66;5043933;28;65706;-40
2024/01/22 09:43:49;;;;;;;17.00;13.70;;;;;;;33.00;61.05;100883.75;5041849;28;70141;-39
2024/01/22 09:46:21;;;;;;;14.13;12.90;;;;;;;33.11;61.03;100896.53;5059114;28;66188;-38
2024/01/22 09:48:53;;;;;;;16.23;13.45;;;;;;;33.18;60.84;100897.22;5056548;28;70328;-39
2024/01/22 09:51:26;;;;;;;17.08;12.98;;;;;;;33.21;61.12;100902.22;5034624;28;66717;-39
2024/01/22 09:54:05;;;;;;;15.75;13.10;;;;;;;32.91;59.97;100845.19;5036501;28;69205;-40
2024/01/22 09:56:37;;;;;;;13.20;11.90;;;;;;;33.34;60.56;100901.94;5041323;28;66536;-39
2024/01/22 09:59:29;;;;;;;22.13;13.68;;;;;;;33.29;59.49;100910.03;5040028;28;69445;-40
2024/01/22 10:02:03;;;;;;;15.20;11.80;;;;;;;33.05;59.76;100873.00;5042446;28;65648;-39
2024/01/22 10:04:34;;;;;;;14.98;11.32;;;;;;;33.44;60.59;100928.56;5054150;28;69137;-40
2024/01/22 10:07:07;;;;;;;13.33;11.67;;;;;;;33.47;60.26;100938.16;5040374;28;65626;-38
2024/01/22 10:09:38;;;;;;;12.30;11.18;;;;;;;33.43;60.39;100926.06;5039912;28;70198;-38
2024/01/22 10:12:09;;;;;;;11.55;10.27;;;;;;;33.46;60.52;100923.72;5038779;28;66727;-39
2024/01/22 10:14:42;;;;;;;13.50;9.57;;;;;;;33.45;60.03;100932.09;5050719;28;71021;-38
2024/01/22 10:17:17;;;;;;;14.20;10.30;;;;;;;33.07;58.88;100896.19;5041295;28;66056;-40
2024/01/22 10:19:49;;;;;;;14.80;9.52;;;;;;;33.17;59.46;100933.63;5041759;28;70479;-40
2024/01/22 10:22:21;;;;;;;16.13;9.38;;;;;;;33.08;59.78;100941.31;5041800;28;66588;-38
2024/01/22 10:25:02;;;;;;;9.10;8.18;;;;;;;32.87;60.07;100931.75;5030891;28;70320;-40
2024/01/22 10:27:34;;;;;;;15.70;9.70;;;;;;;32.91;60.26;100952.00;5040037;28;65418;-39
2024/01/22 10:30:12;;;;;;;9.15;8.23;;;;;;;32.88;60.29;100960.59;5037297;28;70724;-40
2024/01/22 10:32:43;;;;;;;14.85;8.43;;;;;;;32.76;60.39;100946.16;5039865;28;66571;-40
2024/01/22 10:35:26;;;;;;;18.48;7.57;;;;;;;32.71;60.91;100957.72;5046205;28;68491;-41
2024/01/22 10:38:11;;;;;;;10.57;7.35;;;;;;;32.74;60.63;100961.88;5013075;28;66078;-39
2024/01/22 10:40:41;;;;;;;14.80;7.22;;;;;;;32.66;61.14;100959.47;5047502;28;70045;-41
2024/01/22 10:43:21;;;;;;;13.73;7.78;;;;;;;32.68;61.38;100962.78;5046800;28;66025;-39
2024/01/22 10:45:52;;;;;;;9.48;6.78;;;;;;;32.54;61.39;100945.88;5040205;28;70118;-38
2024/01/22 10:48:25;;;;;;;7.90;7.10;;;;;;;32.66;61.10;100975.78;5057378;28;66168;-40
2024/01/22 10:51:12;;;;;;;15.88;6.95;;;;;;;32.66;60.96;100975.78;5041385;28;70293;-40
2024/01/22 10:53:44;;;;;;;6.93;6.32;;;;;;;32.63;61.23;100981.66;5057720;28;66288;-38
2024/01/22 10:56:28;;;;;;;11.35;6.90;;;;;;;32.55;60.92;100968.41;5036969;28;70779;-40
2024/01/22 10:59:07;;;;;;;8.90;6.28;;;;;;;32.59;61.09;100986.72;5048798;28;66656;-40
2024/01/22 11:01:39;;;;;;;18.23;7.22;;;;;;;32.58;61.15;100981.53;5054982;28;70751;-38
2024/01/22 11:04:11;;;;;;;11.43;6.95;;;;;;;32.49;61.04;100973.69;5040620;28;66065;-39
2024/01/22 11:06:43;;;;;;;11.77;6.78;;;;;;;32.60;60.92;100998.44;5044093;28;70403;-40
2024/01/22 11:09:17;;;;;;;8.40;5.82;;;;;;;32.59;60.92;101007.63;5057127;28;66777;-39
2024/01/22 11:11:50;;;;;;;7.88;6.35;;;;;;;32.53;61.04;100994.97;5050550;28;70159;-39
2024/01/22 11:14:21;;;;;;;10.27;6.28;;;;;;;32.55;60.68;101004.53;5050899;28;66828;-39
2024/01/22 11:16:52;;;;;;;13.03;6.17;;;;;;;32.64;61.24;101016.72;5055328;28;70195;-40
2024/01/22 11:19:22;;;;;;;11.23;6.63;;;;;;;32.71;60.99;101012.06;5035973;28;66450;-38
2024/01/22 11:21:54;;;;;;;7.25;6.18;;;;;;;32.81;60.99;101030.50;5051931;28;70147;-39
2024/01/22 11:24:27;;;;;;;6.45;5.93;;;;;;;32.87;61.15;101021.41;5051072;28;66211;-38
2024/01/22 11:26:57;;;;;;;10.32;6.03;;;;;;;32.88;60.75;101036.69;5050041;28;70882;-39
2024/01/22 11:29:32;;;;;;;20.63;6.35;;;;;;;32.83;59.97;101033.81;5042454;28;65600;-41
2024/01/22 11:32:25;;;;;;;12.88;6.43;;;;;;;32.67;60.60;101031.75;5034841;28;70292;-40
2024/01/22 11:35:00;;;;;;;9.10;6.43;;;;;;;32.66;60.74;101040.97;5041535;28;65996;-41
2024/01/22 11:37:43;;;;;;;8.18;6.47;;;;;;;32.65;61.09;101051.00;5044306;28;70447;-39
2024/01/22 11:40:16;;;;;;;7.77;6.97;;;;;;;32.65;61.15;101061.00;5041185;28;67706;-39
2024/01/22 11:42:47;;;;;;;9.00;6.70;;;;;;;32.74;61.41;101059.66;5037354;28;70603;-39
2024/01/22 11:45:18;;;;;;;6.25;5.82;;;;;;;32.78;61.24;101066.28;5043307;28;66847;-38